Time;durP1;ratioP1;P1;durP2;ratioP2;P2;SDS_P1;SDS_P2;PMS_P1;PMS_P2;Temp;Humidity;BMP_temperature;BMP_pressure;BME280_temperature;BME280_humidity;BME280_pressure;Samples;Min_cycle;Max_cycle;Signal;HPM_P1;HPM_P2
2021/03/11 00:00:57;;;;;;;59.17;29.35;;;;;;;;;;4995334;28;20038;-69
2021/03/11 00:03:23;;;;;;;60.08;31.02;;;;;;;;;;4979975;28;20041;-70
2021/03/11 00:05:49;;;;;;;58.05;29.60;;;;;;;;;;4976874;28;20026;-70
2021/03/11 00:08:16;;;;;;;55.25;29.17;;;;;;;;;;4981815;28;20046;-71
2021/03/11 00:10:42;;;;;;;55.70;29.45;;;;;;;;;;5000482;28;20382;-69
2021/03/11 00:13:09;;;;;;;60.33;29.77;;;;;;;;;;4994500;28;20057;-70
2021/03/11 00:15:36;;;;;;;64.25;30.65;;;;;;;;;;4976768;28;20050;-70
2021/03/11 00:18:03;;;;;;;63.30;31.05;;;;;;;;;;4977061;28;20022;-70
2021/03/11 00:20:30;;;;;;;57.65;28.40;;;;;;;;;;4976782;28;20025;-69
2021/03/11 00:22:56;;;;;;;53.88;28.33;;;;;;;;;;4976746;28;20533;-70
2021/03/11 00:25:23;;;;;;;60.33;29.45;;;;;;;;;;4994491;28;20122;-71
2021/03/11 05:52:33;;;;;;;91.03;42.50;;;;;;;;;;5466210;23;20062;-70
2021/03/11 05:54:59;;;;;;;85.78;42.25;;;;;;;;;;4985063;28;20038;-70
2021/03/11 05:57:25;;;;;;;90.18;45.83;;;;;;;;;;4996499;28;20097;-69
2021/03/11 05:59:55;;;;;;;93.30;46.55;;;;;;;;;;5004257;28;20035;-67
2021/03/11 06:02:24;;;;;;;99.05;48.00;;;;;;;;;;4998586;28;20034;-70
2021/03/11 06:04:53;;;;;;;98.70;46.65;;;;;;;;;;4987844;28;20065;-70
2021/03/11 06:07:21;;;;;;;92.70;46.08;;;;;;;;;;5003166;28;20026;-69
2021/03/11 06:09:48;;;;;;;93.45;45.28;;;;;;;;;;5004236;28;20033;-69
2021/03/11 06:12:15;;;;;;;79.88;42.65;;;;;;;;;;5003529;28;20081;-71
2021/03/11 06:14:43;;;;;;;78.82;41.55;;;;;;;;;;5002518;28;20384;-69
2021/03/11 06:17:09;;;;;;;86.60;43.90;;;;;;;;;;5004644;28;20043;-70
2021/03/11 06:19:35;;;;;;;87.78;41.83;;;;;;;;;;5004468;28;20067;-69
2021/03/11 06:22:03;;;;;;;85.38;44.00;;;;;;;;;;5008249;28;20030;-71
2021/03/11 06:24:29;;;;;;;94.45;44.22;;;;;;;;;;5002186;28;20034;-70
2021/03/11 06:26:55;;;;;;;78.60;42.83;;;;;;;;;;4992988;28;20052;-69
2021/03/11 06:29:42;;;;;;;92.75;43.38;;;;;;;;;;4996195;28;20044;-70
2021/03/11 06:32:09;;;;;;;77.75;40.47;;;;;;;;;;4987490;28;20022;-71
2021/03/11 06:34:40;;;;;;;78.10;40.72;;;;;;;;;;5010072;28;20026;-72
2021/03/11 06:37:06;;;;;;;208.82;115.40;;;;;;;;;;4996957;28;20022;-74
2021/03/11 06:39:34;;;;;;;124.55;67.28;;;;;;;;;;5000090;28;20050;-75
2021/03/11 06:42:00;;;;;;;133.43;71.90;;;;;;;;;;4996075;28;20022;-76
2021/03/11 06:44:33;;;;;;;160.95;84.00;;;;;;;;;;4997267;28;20046;-74
2021/03/11 06:47:01;;;;;;;141.77;78.32;;;;;;;;;;4997770;28;20065;-75
2021/03/11 06:49:27;;;;;;;147.55;77.72;;;;;;;;;;4995803;28;20027;-73
2021/03/11 06:52:13;;;;;;;118.82;64.88;;;;;;;;;;4991287;28;20331;-73
2021/03/11 06:54:58;;;;;;;121.85;63.42;;;;;;;;;;4960093;28;20042;-74
2021/03/11 06:57:26;;;;;;;108.22;57.22;;;;;;;;;;4978141;28;20078;-77
2021/03/11 06:59:53;;;;;;;102.22;52.97;;;;;;;;;;4986512;28;20401;-75
2021/03/11 07:02:22;;;;;;;73.80;39.03;;;;;;;;;;4988460;28;20030;-77
2021/03/11 07:04:49;;;;;;;75.97;39.92;;;;;;;;;;4989955;28;20014;-77
2021/03/11 07:07:24;;;;;;;78.80;38.03;;;;;;;;;;5005066;28;20018;-77
2021/03/11 07:09:55;;;;;;;67.80;34.63;;;;;;;;;;4989492;28;20124;-77
2021/03/11 07:12:21;;;;;;;64.20;33.58;;;;;;;;;;4989344;28;20071;-74
2021/03/11 07:14:50;;;;;;;65.63;33.58;;;;;;;;;;4987586;28;20027;-77
2021/03/11 07:17:20;;;;;;;61.50;32.60;;;;;;;;;;4988665;28;20105;-77
2021/03/11 07:20:05;;;;;;;61.67;30.23;;;;;;;;;;4987392;28;20088;-76
2021/03/11 07:22:31;;;;;;;61.42;30.50;;;;;;;;;;4985777;28;20028;-78
2021/03/11 07:24:57;;;;;;;58.55;28.00;;;;;;;;;;4988505;28;20424;-76
2021/03/11 07:27:23;;;;;;;50.85;27.38;;;;;;;;;;4989414;28;20029;-77
2021/03/11 07:30:03;;;;;;;51.33;26.25;;;;;;;;;;4984576;28;20081;-75
2021/03/11 07:32:30;;;;;;;51.95;25.88;;;;;;;;;;4978574;28;20468;-73
2021/03/11 07:34:57;;;;;;;52.97;27.08;;;;;;;;;;4960005;28;20023;-74
2021/03/11 07:37:25;;;;;;;50.33;26.75;;;;;;;;;;4977833;28;20065;-73
2021/03/11 07:39:54;;;;;;;51.22;26.80;;;;;;;;;;4978972;28;20504;-78
2021/03/11 07:42:20;;;;;;;45.72;23.88;;;;;;;;;;4991716;28;20035;-78
2021/03/11 07:44:51;;;;;;;44.45;23.13;;;;;;;;;;4973935;28;20070;-76
2021/03/11 07:50:11;;;;;;;42.28;21.38;;;;;;;;;;5256494;23;21366;-76
2021/03/11 07:52:38;;;;;;;39.85;20.00;;;;;;;;;;5001432;28;20128;-80
2021/03/11 07:55:05;;;;;;;38.28;19.15;;;;;;;;;;4995147;28;20084;-75
2021/03/11 07:57:32;;;;;;;37.05;19.90;;;;;;;;;;5006748;28;20109;-75
2021/03/11 07:59:58;;;;;;;41.88;20.95;;;;;;;;;;4996358;28;20030;-74
2021/03/11 08:02:25;;;;;;;39.50;19.73;;;;;;;;;;4994770;28;20429;-75
2021/03/11 08:04:51;;;;;;;40.28;20.42;;;;;;;;;;4994365;28;20440;-74
2021/03/11 08:07:18;;;;;;;42.35;21.98;;;;;;;;;;4994613;28;20351;-75
2021/03/11 08:09:44;;;;;;;40.50;21.65;;;;;;;;;;4994367;28;20053;-75
2021/03/11 08:12:46;;;;;;;39.67;21.95;;;;;;;;;;4994439;28;20081;-75
2021/03/11 08:15:14;;;;;;;43.03;21.98;;;;;;;;;;4957886;28;20077;-72
2021/03/11 08:17:42;;;;;;;43.00;22.95;;;;;;;;;;4957828;28;20035;-71
2021/03/11 08:20:09;;;;;;;43.38;23.73;;;;;;;;;;4973938;28;20038;-73
2021/03/11 08:22:55;;;;;;;53.25;26.85;;;;;;;;;;4980169;28;20041;-72
2021/03/11 08:25:30;;;;;;;48.92;26.73;;;;;;;;;;4977109;28;20052;-72
2021/03/11 08:27:56;;;;;;;51.58;26.25;;;;;;;;;;4993426;28;20057;-74
2021/03/11 08:30:38;;;;;;;50.17;26.05;;;;;;;;;;4993883;28;20043;-72
2021/03/11 08:33:07;;;;;;;43.40;24.10;;;;;;;;;;4980831;28;20054;-74
2021/03/11 08:35:37;;;;;;;39.67;23.35;;;;;;;;;;4973724;28;20039;-72
2021/03/11 08:38:22;;;;;;;41.67;23.80;;;;;;;;;;4957963;28;20019;-76
2021/03/11 08:40:54;;;;;;;41.60;22.38;;;;;;;;;;4957281;28;20031;-76
2021/03/11 08:43:38;;;;;;;41.42;23.50;;;;;;;;;;4957367;28;20035;-78
2021/03/11 08:46:05;;;;;;;43.78;24.38;;;;;;;;;;4957369;28;20082;-74
2021/03/11 08:48:50;;;;;;;40.30;22.95;;;;;;;;;;4961677;28;20034;-72
2021/03/11 08:51:19;;;;;;;42.40;23.05;;;;;;;;;;5000003;28;20038;-73
2021/03/11 08:53:52;;;;;;;41.00;23.33;;;;;;;;;;4993214;28;20018;-71
2021/03/11 08:56:18;;;;;;;41.83;22.27;;;;;;;;;;4993829;28;20029;-74
2021/03/11 08:58:55;;;;;;;38.80;21.60;;;;;;;;;;4994622;28;20058;-75
2021/03/11 09:01:37;;;;;;;40.75;21.63;;;;;;;;;;4993847;28;20045;-73
2021/03/11 09:04:24;;;;;;;35.90;21.27;;;;;;;;;;4993636;28;20054;-74
2021/03/11 09:07:00;;;;;;;40.97;22.67;;;;;;;;;;4995570;28;20047;-75
2021/03/11 09:09:42;;;;;;;46.70;25.42;;;;;;;;;;4993260;28;20121;-77
2021/03/11 09:12:09;;;;;;;32.10;17.08;;;;;;;;;;4993516;28;20022;-76
2021/03/11 09:14:36;;;;;;;36.97;21.13;;;;;;;;;;4993072;28;20022;-74
2021/03/11 09:17:12;;;;;;;37.90;20.25;;;;;;;;;;4990185;28;20038;-73
2021/03/11 09:19:42;;;;;;;35.25;21.20;;;;;;;;;;4980104;28;20034;-75
2021/03/11 09:22:25;;;;;;;40.08;21.67;;;;;;;;;;4973810;28;20118;-73
2021/03/11 09:25:01;;;;;;;36.83;21.23;;;;;;;;;;4973448;28;20023;-73
2021/03/11 09:27:28;;;;;;;40.25;21.63;;;;;;;;;;4974001;28;20031;-74
2021/03/11 09:30:02;;;;;;;37.92;21.60;;;;;;;;;;4973348;28;20027;-74
2021/03/11 09:32:29;;;;;;;40.67;22.30;;;;;;;;;;4973759;28;20355;-72
2021/03/11 09:34:56;;;;;;;42.28;23.48;;;;;;;;;;4973389;28;20548;-72
2021/03/11 09:37:41;;;;;;;31.25;19.60;;;;;;;;;;4973515;28;20023;-73
2021/03/11 09:40:07;;;;;;;35.80;20.95;;;;;;;;;;4973341;28;20055;-73
2021/03/11 09:42:34;;;;;;;35.75;20.58;;;;;;;;;;4973056;28;20496;-73
2021/03/11 09:45:00;;;;;;;38.42;21.77;;;;;;;;;;4979277;28;20030;-74
2021/03/11 09:47:29;;;;;;;34.47;21.60;;;;;;;;;;4992611;28;20030;-71
2021/03/11 09:50:09;;;;;;;37.92;21.00;;;;;;;;;;4992400;28;20077;-71
2021/03/11 09:52:54;;;;;;;44.22;24.30;;;;;;;;;;4982262;28;20054;-69
2021/03/11 09:55:20;;;;;;;40.17;21.38;;;;;;;;;;4985161;28;20026;-72
2021/03/11 09:57:46;;;;;;;32.33;19.05;;;;;;;;;;4980480;28;20042;-73
2021/03/11 10:00:13;;;;;;;32.55;19.73;;;;;;;;;;4978777;28;20082;-72
2021/03/11 10:02:46;;;;;;;28.63;18.00;;;;;;;;;;4974880;28;20035;-73
2021/03/11 10:05:12;;;;;;;29.98;18.45;;;;;;;;;;4975595;28;20101;-73
2021/03/11 10:07:39;;;;;;;31.42;18.52;;;;;;;;;;4984345;28;20029;-74
2021/03/11 10:10:10;;;;;;;29.42;18.33;;;;;;;;;;4985684;28;20454;-74
2021/03/11 10:12:42;;;;;;;33.92;20.35;;;;;;;;;;4998898;28;20022;-75
2021/03/11 10:15:09;;;;;;;32.17;18.67;;;;;;;;;;4989212;28;20482;-74
2021/03/11 10:17:35;;;;;;;37.25;21.05;;;;;;;;;;4990291;28;20038;-69
2021/03/11 10:20:18;;;;;;;40.47;21.90;;;;;;;;;;4987662;28;20030;-72
2021/03/11 10:22:45;;;;;;;34.03;20.30;;;;;;;;;;4985072;28;20026;-70
2021/03/11 10:25:15;;;;;;;33.38;18.90;;;;;;;;;;4988710;28;20084;-70
2021/03/11 10:27:44;;;;;;;36.20;19.13;;;;;;;;;;4997493;28;20034;-69
2021/03/11 10:30:12;;;;;;;32.90;19.90;;;;;;;;;;4989514;28;20101;-69
2021/03/11 10:32:39;;;;;;;32.50;19.02;;;;;;;;;;4991189;28;20031;-69
2021/03/11 10:35:07;;;;;;;31.70;17.73;;;;;;;;;;4982790;28;20110;-69
2021/03/11 10:37:34;;;;;;;26.30;16.83;;;;;;;;;;4985070;28;20043;-71
2021/03/11 10:40:02;;;;;;;30.52;17.75;;;;;;;;;;4988318;28;20031;-72
2021/03/11 10:42:50;;;;;;;30.45;16.85;;;;;;;;;;4987024;28;20018;-71
2021/03/11 10:45:19;;;;;;;36.15;16.83;;;;;;;;;;4987046;28;20046;-71
2021/03/11 10:47:59;;;;;;;27.20;17.02;;;;;;;;;;4986485;28;20019;-72
2021/03/11 10:50:25;;;;;;;31.80;17.50;;;;;;;;;;4988559;28;20018;-71
2021/03/11 10:52:52;;;;;;;30.63;18.67;;;;;;;;;;5007492;28;20377;-73
2021/03/11 10:55:33;;;;;;;31.00;18.45;;;;;;;;;;5008942;28;20102;-73
2021/03/11 10:58:00;;;;;;;31.48;17.55;;;;;;;;;;4984916;28;20023;-73
2021/03/11 11:00:30;;;;;;;30.30;18.45;;;;;;;;;;4979665;28;20165;-72
2021/03/11 11:02:58;;;;;;;30.92;17.98;;;;;;;;;;4980111;28;20033;-70
2021/03/11 11:05:24;;;;;;;30.58;17.67;;;;;;;;;;5016078;28;20429;-71
2021/03/11 11:07:51;;;;;;;30.95;19.08;;;;;;;;;;5008117;28;20143;-73
2021/03/11 11:10:25;;;;;;;27.33;16.33;;;;;;;;;;4998916;28;20392;-73
2021/03/11 11:12:51;;;;;;;28.35;16.90;;;;;;;;;;4992725;28;20069;-72
2021/03/11 11:15:18;;;;;;;26.50;15.18;;;;;;;;;;4998700;28;20030;-75
2021/03/11 11:17:44;;;;;;;25.17;15.75;;;;;;;;;;5010771;28;20068;-72
2021/03/11 11:20:12;;;;;;;29.10;15.32;;;;;;;;;;5004287;28;20038;-71
2021/03/11 11:22:38;;;;;;;27.88;15.40;;;;;;;;;;5012461;28;20053;-72
2021/03/11 11:25:06;;;;;;;25.65;14.88;;;;;;;;;;4995682;28;20026;-73
2021/03/11 11:27:33;;;;;;;27.45;15.52;;;;;;;;;;5002060;28;20023;-73
2021/03/11 11:29:59;;;;;;;25.10;15.55;;;;;;;;;;5004972;28;20061;-71
2021/03/11 11:32:26;;;;;;;28.10;15.80;;;;;;;;;;4991925;28;20373;-71
2021/03/11 11:34:52;;;;;;;25.77;15.07;;;;;;;;;;4989613;28;20054;-71
2021/03/11 11:37:18;;;;;;;26.02;16.02;;;;;;;;;;4986511;28;20081;-71
2021/03/11 11:39:45;;;;;;;27.52;15.52;;;;;;;;;;5005632;28;20029;-71
2021/03/11 11:42:12;;;;;;;25.92;16.13;;;;;;;;;;4986352;28;20113;-73
2021/03/11 11:44:41;;;;;;;26.98;16.23;;;;;;;;;;5007812;28;20030;-71
2021/03/11 11:47:08;;;;;;;27.50;16.98;;;;;;;;;;4983530;28;20031;-70
2021/03/11 11:49:34;;;;;;;26.63;16.30;;;;;;;;;;4984820;28;20029;-71
2021/03/11 11:52:00;;;;;;;28.20;15.90;;;;;;;;;;4988286;28;20401;-71
2021/03/11 11:54:27;;;;;;;22.98;15.15;;;;;;;;;;5010250;28;20035;-73
2021/03/11 11:56:53;;;;;;;23.95;15.38;;;;;;;;;;5003966;28;20018;-71
2021/03/11 11:59:20;;;;;;;23.25;14.88;;;;;;;;;;4992314;28;20026;-72
2021/03/11 12:01:49;;;;;;;28.40;15.55;;;;;;;;;;4993189;28;20026;-72
2021/03/11 12:04:15;;;;;;;24.55;15.07;;;;;;;;;;4989480;28;20029;-71
2021/03/11 12:06:42;;;;;;;22.60;14.43;;;;;;;;;;4982891;28;20053;-73
2021/03/11 12:09:08;;;;;;;25.45;15.50;;;;;;;;;;4985045;28;20014;-72
2021/03/11 12:11:35;;;;;;;24.00;14.57;;;;;;;;;;5007039;28;20101;-71
2021/03/11 12:14:01;;;;;;;26.13;14.82;;;;;;;;;;4985733;28;20034;-72
2021/03/11 12:16:28;;;;;;;27.77;15.30;;;;;;;;;;4989523;28;20064;-72
2021/03/11 12:18:54;;;;;;;23.42;14.90;;;;;;;;;;4989236;28;20384;-71
2021/03/11 12:21:45;;;;;;;25.08;15.05;;;;;;;;;;4984433;28;20037;-73
2021/03/11 12:24:16;;;;;;;24.58;15.55;;;;;;;;;;4982459;28;20038;-73
2021/03/11 12:26:42;;;;;;;26.10;15.77;;;;;;;;;;4986527;28;20049;-73
2021/03/11 12:29:15;;;;;;;25.25;15.30;;;;;;;;;;4984350;28;20101;-73
2021/03/11 12:31:43;;;;;;;27.63;14.85;;;;;;;;;;4978883;28;20492;-74
2021/03/11 12:34:09;;;;;;;25.85;14.77;;;;;;;;;;4977820;28;20068;-72
2021/03/11 12:36:36;;;;;;;28.83;14.65;;;;;;;;;;4977531;28;20162;-73
2021/03/11 12:39:02;;;;;;;24.75;15.25;;;;;;;;;;4995717;28;20023;-74
2021/03/11 12:41:28;;;;;;;25.58;15.52;;;;;;;;;;4979355;28;20042;-72
2021/03/11 12:43:54;;;;;;;25.73;14.95;;;;;;;;;;4978757;28;20389;-71
2021/03/11 12:46:21;;;;;;;22.65;14.90;;;;;;;;;;4995802;28;20038;-72
2021/03/11 12:48:47;;;;;;;26.13;16.00;;;;;;;;;;4996045;28;20020;-73
2021/03/11 12:51:13;;;;;;;25.65;15.20;;;;;;;;;;4973716;28;20058;-73
2021/03/11 12:53:40;;;;;;;26.80;16.02;;;;;;;;;;5000532;28;20038;-72
2021/03/11 12:56:06;;;;;;;24.08;15.23;;;;;;;;;;4986568;28;20109;-72
2021/03/11 12:58:32;;;;;;;30.25;15.93;;;;;;;;;;5000025;28;20022;-74
2021/03/11 13:00:58;;;;;;;25.75;14.90;;;;;;;;;;4992209;28;20058;-75
2021/03/11 13:03:25;;;;;;;24.05;14.90;;;;;;;;;;4994090;28;20041;-74
2021/03/11 13:05:56;;;;;;;28.88;14.63;;;;;;;;;;4992769;28;20018;-75
2021/03/11 13:08:22;;;;;;;25.30;15.13;;;;;;;;;;4992296;28;20430;-76
2021/03/11 13:10:48;;;;;;;28.55;16.38;;;;;;;;;;4992308;28;20030;-76
2021/03/11 13:13:14;;;;;;;23.92;14.95;;;;;;;;;;4983303;28;20418;-73
2021/03/11 13:15:40;;;;;;;24.00;14.95;;;;;;;;;;4989994;28;20019;-77
2021/03/11 13:18:07;;;;;;;27.92;15.15;;;;;;;;;;4991360;28;20018;-76
2021/03/11 13:20:33;;;;;;;24.40;15.55;;;;;;;;;;4990378;28;20026;-74
2021/03/11 13:22:59;;;;;;;27.08;15.82;;;;;;;;;;4990216;28;20554;-77
2021/03/11 13:25:26;;;;;;;28.48;16.80;;;;;;;;;;4988741;28;20113;-79
2021/03/11 13:27:52;;;;;;;29.98;16.38;;;;;;;;;;4988933;28;20496;-75
2021/03/11 13:30:18;;;;;;;26.75;15.60;;;;;;;;;;4987022;28;20035;-76
2021/03/11 13:32:46;;;;;;;25.52;15.77;;;;;;;;;;4998315;28;20022;-75
2021/03/11 13:35:13;;;;;;;23.80;15.35;;;;;;;;;;4988755;28;20037;-72
2021/03/11 13:37:39;;;;;;;26.27;16.33;;;;;;;;;;4993214;28;20018;-76
2021/03/11 13:40:06;;;;;;;25.48;14.80;;;;;;;;;;4992696;28;20152;-74
2021/03/11 13:42:32;;;;;;;27.48;16.52;;;;;;;;;;4990626;28;20030;-79
2021/03/11 13:44:58;;;;;;;26.52;15.77;;;;;;;;;;4989419;28;20023;-75
2021/03/11 13:47:25;;;;;;;23.30;13.73;;;;;;;;;;4991003;28;20018;-75
2021/03/11 13:49:51;;;;;;;20.25;13.55;;;;;;;;;;4991020;28;20034;-74
2021/03/11 13:52:17;;;;;;;22.42;13.90;;;;;;;;;;4994325;28;20120;-75
2021/03/11 13:54:43;;;;;;;22.17;13.50;;;;;;;;;;4990446;28;20022;-71
2021/03/11 13:57:09;;;;;;;20.88;13.52;;;;;;;;;;4985396;28;20105;-74
2021/03/11 13:59:36;;;;;;;22.45;14.00;;;;;;;;;;4976914;28;20118;-73
2021/03/11 14:02:02;;;;;;;26.42;15.35;;;;;;;;;;4983210;28;20023;-73
2021/03/11 14:04:28;;;;;;;25.55;14.70;;;;;;;;;;4992683;28;20030;-72
2021/03/11 14:06:54;;;;;;;28.73;15.23;;;;;;;;;;4988009;28;20021;-70
2021/03/11 14:09:20;;;;;;;23.65;14.90;;;;;;;;;;4990282;28;20149;-74
2021/03/11 14:11:47;;;;;;;23.60;13.77;;;;;;;;;;4992548;28;20030;-74
2021/03/11 14:14:16;;;;;;;23.42;14.70;;;;;;;;;;4991407;28;20018;-75
2021/03/11 14:16:43;;;;;;;24.45;14.55;;;;;;;;;;4990308;28;20121;-75
2021/03/11 14:19:10;;;;;;;22.55;14.10;;;;;;;;;;4990493;28;20035;-79
2021/03/11 14:21:36;;;;;;;23.88;14.45;;;;;;;;;;4991860;28;20039;-72
2021/03/11 14:24:02;;;;;;;22.38;14.15;;;;;;;;;;4990885;28;20436;-75
2021/03/11 14:26:30;;;;;;;25.55;15.05;;;;;;;;;;4988457;28;20336;-74
2021/03/11 14:28:56;;;;;;;31.00;17.48;;;;;;;;;;4991606;28;20442;-77
2021/03/11 14:31:22;;;;;;;25.95;15.30;;;;;;;;;;4986898;28;20034;-78
2021/03/11 14:33:48;;;;;;;24.90;15.23;;;;;;;;;;4983448;28;20030;-78
2021/03/11 14:36:14;;;;;;;33.83;19.67;;;;;;;;;;4991056;28;20018;-75
2021/03/11 14:38:40;;;;;;;25.88;13.93;;;;;;;;;;4988889;28;20023;-75
2021/03/11 14:41:06;;;;;;;35.35;20.27;;;;;;;;;;4990851;28;20474;-73
2021/03/11 14:43:32;;;;;;;33.30;17.52;;;;;;;;;;4988901;28;20505;-76
2021/03/11 14:46:01;;;;;;;28.85;15.18;;;;;;;;;;4990714;28;20457;-75
2021/03/11 14:48:27;;;;;;;22.63;13.77;;;;;;;;;;4989950;28;20034;-77
2021/03/11 14:50:53;;;;;;;25.45;14.20;;;;;;;;;;4989558;28;20477;-77
2021/03/11 14:53:20;;;;;;;22.73;14.55;;;;;;;;;;4994217;28;20026;-75
2021/03/11 14:55:46;;;;;;;20.83;13.93;;;;;;;;;;4994462;28;20021;-75
2021/03/11 14:58:12;;;;;;;29.00;17.10;;;;;;;;;;4992365;28;20010;-77
2021/03/11 15:00:38;;;;;;;30.27;19.35;;;;;;;;;;4985807;28;20046;-77
2021/03/11 15:03:05;;;;;;;25.05;15.27;;;;;;;;;;4980743;28;20109;-75
2021/03/11 15:05:31;;;;;;;25.45;15.05;;;;;;;;;;4982331;28;20497;-72
2021/03/11 15:07:58;;;;;;;23.75;14.60;;;;;;;;;;4990014;28;20466;-75
2021/03/11 15:10:26;;;;;;;23.90;15.05;;;;;;;;;;4990033;28;20021;-77
2021/03/11 15:12:52;;;;;;;22.10;14.07;;;;;;;;;;4988361;28;20113;-74
2021/03/11 15:15:19;;;;;;;26.98;16.13;;;;;;;;;;4988209;28;20449;-76
2021/03/11 15:17:45;;;;;;;25.13;14.38;;;;;;;;;;4992736;28;20025;-81
2021/03/11 15:20:12;;;;;;;27.67;15.68;;;;;;;;;;4988848;28;20026;-78
2021/03/11 15:22:38;;;;;;;25.23;14.65;;;;;;;;;;4988236;28;20472;-76
2021/03/11 15:25:06;;;;;;;26.40;15.65;;;;;;;;;;4986075;28;20481;-73
2021/03/11 15:27:32;;;;;;;22.92;13.77;;;;;;;;;;4987007;28;20032;-74
2021/03/11 15:29:58;;;;;;;25.45;14.10;;;;;;;;;;5005275;28;20015;-76
2021/03/11 15:32:24;;;;;;;25.63;14.65;;;;;;;;;;4988236;28;20014;-76
2021/03/11 15:34:50;;;;;;;39.28;21.70;;;;;;;;;;4988758;28;20018;-75
2021/03/11 15:37:16;;;;;;;22.75;12.63;;;;;;;;;;4985824;28;20118;-75
2021/03/11 15:39:42;;;;;;;33.22;18.73;;;;;;;;;;4988526;28;20074;-76
2021/03/11 15:42:08;;;;;;;27.38;14.50;;;;;;;;;;4993965;28;20037;-77
2021/03/11 15:44:35;;;;;;;29.27;16.52;;;;;;;;;;4991647;28;20018;-76
2021/03/11 15:47:01;;;;;;;27.88;15.55;;;;;;;;;;4997246;28;20029;-75
2021/03/11 15:49:27;;;;;;;54.30;29.95;;;;;;;;;;5001459;28;20089;-76
2021/03/11 15:51:53;;;;;;;42.00;22.90;;;;;;;;;;4984389;28;20085;-75
2021/03/11 15:54:19;;;;;;;34.33;18.85;;;;;;;;;;5005069;28;20398;-75
2021/03/11 15:56:45;;;;;;;30.30;17.25;;;;;;;;;;5005279;28;20022;-76
2021/03/11 15:59:11;;;;;;;31.08;19.58;;;;;;;;;;4987294;28;20025;-76
2021/03/11 16:01:38;;;;;;;27.20;16.38;;;;;;;;;;4989172;28;20042;-77
2021/03/11 16:04:04;;;;;;;35.28;20.05;;;;;;;;;;5004533;28;20458;-78
2021/03/11 16:06:30;;;;;;;33.97;18.30;;;;;;;;;;4988329;28;20029;-78
2021/03/11 16:08:56;;;;;;;47.97;25.13;;;;;;;;;;4985732;28;20026;-79
2021/03/11 16:11:22;;;;;;;30.63;17.13;;;;;;;;;;4987574;28;20381;-78
2021/03/11 16:13:49;;;;;;;31.02;17.27;;;;;;;;;;4986597;28;20027;-74
2021/03/11 16:16:16;;;;;;;33.05;18.40;;;;;;;;;;5006340;28;20030;-74
2021/03/11 16:18:45;;;;;;;43.33;21.35;;;;;;;;;;4987940;28;20026;-75
2021/03/11 16:21:12;;;;;;;40.17;22.90;;;;;;;;;;4986059;28;20170;-76
2021/03/11 16:23:41;;;;;;;35.30;18.60;;;;;;;;;;4980722;28;20023;-79
2021/03/11 16:26:07;;;;;;;34.40;19.00;;;;;;;;;;4986511;28;20010;-79
2021/03/11 16:28:33;;;;;;;35.13;19.70;;;;;;;;;;4983184;28;20057;-78
2021/03/11 16:30:59;;;;;;;39.55;22.73;;;;;;;;;;4982982;28;20484;-74
2021/03/11 16:33:25;;;;;;;44.60;23.38;;;;;;;;;;4986126;28;20029;-76
2021/03/11 16:35:52;;;;;;;41.38;21.73;;;;;;;;;;4987726;28;20085;-78
2021/03/11 16:38:18;;;;;;;45.42;25.50;;;;;;;;;;5002748;28;20022;-73
2021/03/11 16:40:44;;;;;;;40.72;23.17;;;;;;;;;;4986750;28;20026;-73
2021/03/11 16:43:10;;;;;;;40.55;22.80;;;;;;;;;;5002517;28;20022;-75
2021/03/11 16:45:36;;;;;;;60.58;35.67;;;;;;;;;;4985883;28;20053;-75
2021/03/11 16:48:03;;;;;;;36.28;21.42;;;;;;;;;;5006098;28;20023;-75
2021/03/11 16:50:29;;;;;;;38.35;20.48;;;;;;;;;;4983316;28;20465;-73
2021/03/11 16:52:55;;;;;;;32.00;19.15;;;;;;;;;;5002033;28;20074;-73
2021/03/11 16:55:21;;;;;;;34.67;18.08;;;;;;;;;;4986123;28;20034;-73
2021/03/11 16:57:47;;;;;;;36.28;20.98;;;;;;;;;;4983346;28;20869;-71
2021/03/11 17:00:14;;;;;;;37.35;20.23;;;;;;;;;;4982766;28;20038;-72
2021/03/11 17:02:40;;;;;;;54.00;33.65;;;;;;;;;;4982796;28;20029;-74
2021/03/11 17:05:07;;;;;;;41.75;23.65;;;;;;;;;;4985240;28;20022;-72
2021/03/11 17:07:36;;;;;;;46.22;27.88;;;;;;;;;;4981968;28;20674;-74
2021/03/11 17:10:04;;;;;;;60.17;35.42;;;;;;;;;;4985093;28;20030;-73
2021/03/11 17:12:33;;;;;;;43.85;25.20;;;;;;;;;;4983596;28;20027;-74
2021/03/11 17:14:59;;;;;;;50.63;30.00;;;;;;;;;;4992893;28;20026;-73
2021/03/11 17:17:25;;;;;;;39.25;20.60;;;;;;;;;;4991780;28;20033;-72
2021/03/11 17:19:51;;;;;;;31.08;17.75;;;;;;;;;;4990106;28;20113;-74
2021/03/11 17:22:18;;;;;;;33.42;17.42;;;;;;;;;;4985117;28;20026;-75
2021/03/11 17:24:44;;;;;;;40.25;21.48;;;;;;;;;;4986138;28;20098;-72
2021/03/11 17:27:10;;;;;;;38.75;20.20;;;;;;;;;;4982099;28;20026;-77
2021/03/11 17:29:36;;;;;;;32.03;17.65;;;;;;;;;;4979042;28;20026;-77
2021/03/11 17:32:03;;;;;;;38.60;19.30;;;;;;;;;;4985244;28;20026;-74
2021/03/11 17:34:30;;;;;;;41.67;21.50;;;;;;;;;;4980611;28;20023;-73
2021/03/11 17:36:56;;;;;;;34.17;19.48;;;;;;;;;;4981289;28;20022;-72
2021/03/11 17:39:23;;;;;;;37.92;19.08;;;;;;;;;;4989348;28;20018;-74
2021/03/11 17:41:49;;;;;;;35.55;18.77;;;;;;;;;;4981698;28;20045;-74
2021/03/11 17:44:18;;;;;;;37.00;20.45;;;;;;;;;;4980581;28;20780;-75
2021/03/11 17:46:44;;;;;;;34.60;18.83;;;;;;;;;;4982327;28;20129;-74
2021/03/11 17:49:11;;;;;;;32.67;17.30;;;;;;;;;;4982555;28;20390;-75
2021/03/11 17:51:37;;;;;;;35.00;18.27;;;;;;;;;;4980844;28;20174;-73
2021/03/11 17:54:04;;;;;;;32.70;17.75;;;;;;;;;;4980131;28;20038;-74
2021/03/11 17:56:42;;;;;;;34.95;18.58;;;;;;;;;;4983061;28;20018;-74
2021/03/11 17:59:09;;;;;;;33.08;18.10;;;;;;;;;;4983825;28;20019;-72
2021/03/11 18:01:35;;;;;;;35.22;18.67;;;;;;;;;;4978247;28;20472;-74
2021/03/11 18:04:01;;;;;;;35.55;18.42;;;;;;;;;;4979953;28;20056;-72
2021/03/11 18:06:27;;;;;;;37.05;18.15;;;;;;;;;;4982736;28;20282;-74
2021/03/11 18:08:53;;;;;;;32.08;17.52;;;;;;;;;;4985887;28;20030;-76
2021/03/11 18:11:19;;;;;;;41.53;20.10;;;;;;;;;;4979045;28;20041;-75
2021/03/11 18:13:46;;;;;;;38.88;20.15;;;;;;;;;;4989917;28;20027;-77
2021/03/11 18:16:12;;;;;;;35.10;18.92;;;;;;;;;;4991398;28;20105;-74
2021/03/11 18:18:38;;;;;;;38.25;18.45;;;;;;;;;;4990108;28;20022;-71
2021/03/11 18:21:05;;;;;;;31.38;18.23;;;;;;;;;;4991765;28;20034;-73
2021/03/11 18:23:31;;;;;;;35.83;18.63;;;;;;;;;;4992079;28;20031;-74
2021/03/11 18:26:00;;;;;;;31.42;17.05;;;;;;;;;;4990381;28;20033;-78
2021/03/11 18:28:27;;;;;;;27.92;16.40;;;;;;;;;;4990155;28;20025;-76
2021/03/11 18:30:53;;;;;;;32.53;17.55;;;;;;;;;;4990968;28;20033;-80
2021/03/11 18:33:20;;;;;;;33.80;17.05;;;;;;;;;;4987390;28;20031;-76
2021/03/11 18:35:46;;;;;;;30.25;17.15;;;;;;;;;;4996339;28;20022;-76
2021/03/11 18:38:13;;;;;;;29.63;16.27;;;;;;;;;;4996029;28;20019;-76
2021/03/11 18:40:42;;;;;;;29.95;16.50;;;;;;;;;;4992898;28;20057;-74
2021/03/11 18:43:09;;;;;;;30.98;17.20;;;;;;;;;;4977083;28;20026;-78
2021/03/11 18:45:35;;;;;;;29.42;16.13;;;;;;;;;;4977613;28;20496;-73
2021/03/11 18:48:01;;;;;;;34.63;17.13;;;;;;;;;;4980865;28;20518;-77
2021/03/11 18:50:27;;;;;;;30.80;16.63;;;;;;;;;;5004459;28;20034;-72
2021/03/11 18:52:54;;;;;;;26.23;15.70;;;;;;;;;;4981920;28;20046;-75
2021/03/11 18:55:21;;;;;;;32.22;17.13;;;;;;;;;;4990098;28;20378;-79
2021/03/11 18:57:48;;;;;;;31.35;16.75;;;;;;;;;;4982987;28;20026;-78
2021/03/11 19:00:15;;;;;;;30.40;17.00;;;;;;;;;;4982124;28;20160;-78
2021/03/11 19:02:42;;;;;;;31.27;17.58;;;;;;;;;;4986613;28;20116;-78
2021/03/11 19:05:08;;;;;;;32.85;18.75;;;;;;;;;;4986058;28;20459;-77
2021/03/11 19:07:35;;;;;;;33.92;18.38;;;;;;;;;;4988511;28;20026;-74
2021/03/11 19:10:01;;;;;;;30.20;16.10;;;;;;;;;;4982031;28;20409;-77
2021/03/11 19:12:27;;;;;;;30.85;16.63;;;;;;;;;;4982139;28;20097;-71
2021/03/11 19:14:53;;;;;;;33.25;16.50;;;;;;;;;;4983693;28;20117;-72
2021/03/11 19:17:20;;;;;;;28.65;16.50;;;;;;;;;;4979851;28;20057;-73
2021/03/11 19:19:46;;;;;;;31.83;18.15;;;;;;;;;;4977948;28;20026;-72
2021/03/11 19:22:12;;;;;;;30.75;17.45;;;;;;;;;;4983607;28;20462;-72
2021/03/11 19:24:38;;;;;;;33.33;16.88;;;;;;;;;;4983428;28;20110;-72
2021/03/11 19:27:05;;;;;;;31.30;18.02;;;;;;;;;;4987748;28;20491;-76
2021/03/11 19:29:31;;;;;;;34.63;18.13;;;;;;;;;;4983947;28;20109;-76
2021/03/11 19:32:00;;;;;;;34.53;19.65;;;;;;;;;;4987337;28;20027;-74
2021/03/11 19:34:26;;;;;;;32.33;17.77;;;;;;;;;;4986013;28;20019;-75
2021/03/11 19:36:52;;;;;;;36.90;19.67;;;;;;;;;;4984288;28;20434;-73
2021/03/11 19:39:18;;;;;;;31.95;18.63;;;;;;;;;;4983468;28;20088;-73
2021/03/11 19:41:44;;;;;;;33.38;17.25;;;;;;;;;;4986322;28;20377;-72
2021/03/11 19:44:10;;;;;;;31.35;17.52;;;;;;;;;;4984774;28;20532;-73
2021/03/11 19:46:37;;;;;;;34.40;17.23;;;;;;;;;;4984796;28;20026;-73
2021/03/11 19:49:03;;;;;;;32.00;17.15;;;;;;;;;;4980795;28;20035;-71